sensor_id;sensor_type;location;lat;lon;timestamp;P1;durP1;ratioP1;P2;durP2;ratioP2
64252;SDS011;50592;52.958;-7.470;2023-01-24T00:01:26;49.45;;;8.05;;
64252;SDS011;50592;52.958;-7.470;2023-01-24T00:03:56;71.70;;;8.82;;
64252;SDS011;50592;52.958;-7.470;2023-01-24T00:06:26;26.02;;;7.47;;
64252;SDS011;50592;52.958;-7.470;2023-01-24T00:08:53;54.83;;;8.85;;
64252;SDS011;50592;52.958;-7.470;2023-01-24T00:11:23;58.38;;;8.40;;
64252;SDS011;50592;52.958;-7.470;2023-01-24T00:13:53;95.10;;;9.45;;
64252;SDS011;50592;52.958;-7.470;2023-01-24T00:16:22;103.53;;;9.48;;
64252;SDS011;50592;52.958;-7.470;2023-01-24T00:18:49;57.08;;;8.82;;
64252;SDS011;50592;52.958;-7.470;2023-01-24T00:21:20;102.32;;;9.02;;
64252;SDS011;50592;52.958;-7.470;2023-01-24T00:23:50;76.47;;;8.82;;
64252;SDS011;50592;52.958;-7.470;2023-01-24T00:26:21;88.35;;;8.73;;
64252;SDS011;50592;52.958;-7.470;2023-01-24T00:28:50;53.13;;;9.50;;
64252;SDS011;50592;52.958;-7.470;2023-01-24T00:31:20;82.63;;;10.82;;
64252;SDS011;50592;52.958;-7.470;2023-01-24T00:33:50;27.40;;;8.88;;
64252;SDS011;50592;52.958;-7.470;2023-01-24T00:36:17;85.40;;;10.02;;
64252;SDS011;50592;52.958;-7.470;2023-01-24T00:38:47;16.40;;;8.85;;
64252;SDS011;50592;52.958;-7.470;2023-01-24T00:41:13;19.55;;;8.43;;
64252;SDS011;50592;52.958;-7.470;2023-01-24T00:43:43;34.58;;;9.73;;
64252;SDS011;50592;52.958;-7.470;2023-01-24T00:46:10;15.55;;;9.07;;
64252;SDS011;50592;52.958;-7.470;2023-01-24T00:48:40;12.65;;;9.05;;
64252;SDS011;50592;52.958;-7.470;2023-01-24T00:51:07;13.50;;;7.97;;
64252;SDS011;50592;52.958;-7.470;2023-01-24T00:53:37;16.13;;;8.80;;
64252;SDS011;50592;52.958;-7.470;2023-01-24T00:56:08;21.40;;;8.77;;
64252;SDS011;50592;52.958;-7.470;2023-01-24T00:58:36;12.40;;;8.40;;
64252;SDS011;50592;52.958;-7.470;2023-01-24T01:01:07;14.38;;;9.80;;
64252;SDS011;50592;52.958;-7.470;2023-01-24T01:03:38;13.55;;;9.75;;
64252;SDS011;50592;52.958;-7.470;2023-01-24T01:06:12;9.73;;;7.22;;
64252;SDS011;50592;52.958;-7.470;2023-01-24T01:08:41;11.55;;;7.28;;
64252;SDS011;50592;52.958;-7.470;2023-01-24T01:11:10;20.52;;;9.73;;
64252;SDS011;50592;52.958;-7.470;2023-01-24T01:13:37;20.00;;;10.88;;
64252;SDS011;50592;52.958;-7.470;2023-01-24T01:16:08;12.73;;;8.75;;
64252;SDS011;50592;52.958;-7.470;2023-01-24T01:18:41;13.63;;;9.60;;
64252;SDS011;50592;52.958;-7.470;2023-01-24T01:21:12;13.02;;;9.43;;
64252;SDS011;50592;52.958;-7.470;2023-01-24T01:23:44;12.68;;;7.20;;
64252;SDS011;50592;52.958;-7.470;2023-01-24T01:26:19;7.03;;;5.75;;
64252;SDS011;50592;52.958;-7.470;2023-01-24T01:28:50;9.18;;;5.70;;
64252;SDS011;50592;52.958;-7.470;2023-01-24T01:31:20;8.40;;;5.53;;
64252;SDS011;50592;52.958;-7.470;2023-01-24T01:33:47;7.38;;;6.30;;
64252;SDS011;50592;52.958;-7.470;2023-01-24T01:36:17;10.20;;;6.30;;
64252;SDS011;50592;52.958;-7.470;2023-01-24T01:38:44;6.45;;;5.38;;
64252;SDS011;50592;52.958;-7.470;2023-01-24T01:41:14;5.70;;;5.05;;
64252;SDS011;50592;52.958;-7.470;2023-01-24T01:43:44;7.93;;;5.75;;
64252;SDS011;50592;52.958;-7.470;2023-01-24T01:46:48;5.82;;;5.18;;
64252;SDS011;50592;52.958;-7.470;2023-01-24T01:49:22;6.43;;;5.10;;
64252;SDS011;50592;52.958;-7.470;2023-01-24T01:51:57;6.60;;;4.97;;
64252;SDS011;50592;52.958;-7.470;2023-01-24T01:54:33;4.95;;;4.45;;
64252;SDS011;50592;52.958;-7.470;2023-01-24T01:57:16;6.05;;;5.00;;
64252;SDS011;50592;52.958;-7.470;2023-01-24T01:59:56;6.95;;;4.80;;
64252;SDS011;50592;52.958;-7.470;2023-01-24T02:02:37;5.78;;;4.43;;
64252;SDS011;50592;52.958;-7.470;2023-01-24T02:05:10;5.57;;;4.85;;
64252;SDS011;50592;52.958;-7.470;2023-01-24T02:08:01;6.05;;;5.00;;
64252;SDS011;50592;52.958;-7.470;2023-01-24T02:10:32;8.75;;;4.50;;
64252;SDS011;50592;52.958;-7.470;2023-01-24T02:13:22;7.28;;;4.55;;
64252;SDS011;50592;52.958;-7.470;2023-01-24T02:15:49;6.28;;;4.85;;
64252;SDS011;50592;52.958;-7.470;2023-01-24T02:18:38;6.75;;;4.30;;
64252;SDS011;50592;52.958;-7.470;2023-01-24T02:21:11;5.32;;;4.47;;
64252;SDS011;50592;52.958;-7.470;2023-01-24T02:23:50;5.15;;;4.07;;
64252;SDS011;50592;52.958;-7.470;2023-01-24T02:26:39;10.65;;;4.03;;
64252;SDS011;50592;52.958;-7.470;2023-01-24T02:29:10;7.82;;;3.67;;
64252;SDS011;50592;52.958;-7.470;2023-01-24T02:31:55;7.00;;;3.70;;
64252;SDS011;50592;52.958;-7.470;2023-01-24T02:34:27;3.33;;;3.03;;
64252;SDS011;50592;52.958;-7.470;2023-01-24T02:36:59;5.93;;;3.75;;
64252;SDS011;50592;52.958;-7.470;2023-01-24T02:39:35;3.95;;;3.58;;
64252;SDS011;50592;52.958;-7.470;2023-01-24T02:42:15;7.88;;;3.97;;
64252;SDS011;50592;52.958;-7.470;2023-01-24T02:47:26;6.55;;;3.60;;
64252;SDS011;50592;52.958;-7.470;2023-01-24T02:50:01;4.80;;;3.08;;
64252;SDS011;50592;52.958;-7.470;2023-01-24T02:52:28;3.60;;;3.15;;
64252;SDS011;50592;52.958;-7.470;2023-01-24T02:55:17;2.90;;;2.65;;
64252;SDS011;50592;52.958;-7.470;2023-01-24T02:57:48;3.63;;;2.45;;
64252;SDS011;50592;52.958;-7.470;2023-01-24T03:00:39;2.50;;;2.30;;
64252;SDS011;50592;52.958;-7.470;2023-01-24T03:03:11;2.58;;;2.38;;
64252;SDS011;50592;52.958;-7.470;2023-01-24T03:05:39;4.47;;;3.40;;
64252;SDS011;50592;52.958;-7.470;2023-01-24T03:08:12;5.00;;;3.03;;
64252;SDS011;50592;52.958;-7.470;2023-01-24T03:10:39;3.75;;;2.80;;
64252;SDS011;50592;52.958;-7.470;2023-01-24T03:13:08;3.45;;;3.15;;
64252;SDS011;50592;52.958;-7.470;2023-01-24T03:15:53;4.15;;;2.45;;
64252;SDS011;50592;52.958;-7.470;2023-01-24T03:18:42;3.05;;;2.33;;
64252;SDS011;50592;52.958;-7.470;2023-01-24T03:21:31;2.28;;;2.00;;
64252;SDS011;50592;52.958;-7.470;2023-01-24T03:24:20;2.65;;;2.30;;
64252;SDS011;50592;52.958;-7.470;2023-01-24T03:27:10;7.93;;;1.65;;
64252;SDS011;50592;52.958;-7.470;2023-01-24T03:30:00;5.70;;;1.52;;
64252;SDS011;50592;52.958;-7.470;2023-01-24T03:32:48;7.28;;;2.03;;
64252;SDS011;50592;52.958;-7.470;2023-01-24T03:35:37;3.30;;;1.70;;
64252;SDS011;50592;52.958;-7.470;2023-01-24T03:38:04;2.75;;;1.65;;
64252;SDS011;50592;52.958;-7.470;2023-01-24T03:40:53;1.90;;;1.45;;
64252;SDS011;50592;52.958;-7.470;2023-01-24T03:43:23;1.98;;;1.67;;
64252;SDS011;50592;52.958;-7.470;2023-01-24T03:45:52;14.05;;;1.80;;
64252;SDS011;50592;52.958;-7.470;2023-01-24T03:48:35;4.22;;;1.85;;
64252;SDS011;50592;52.958;-7.470;2023-01-24T03:51:06;5.90;;;1.77;;
64252;SDS011;50592;52.958;-7.470;2023-01-24T03:53:56;3.72;;;2.00;;
64252;SDS011;50592;52.958;-7.470;2023-01-24T03:56:31;2.45;;;1.70;;
64252;SDS011;50592;52.958;-7.470;2023-01-24T03:58:59;14.45;;;2.28;;
64252;SDS011;50592;52.958;-7.470;2023-01-24T04:01:30;9.00;;;2.00;;
64252;SDS011;50592;52.958;-7.470;2023-01-24T04:04:04;5.35;;;2.20;;
64252;SDS011;50592;52.958;-7.470;2023-01-24T04:06:31;7.75;;;2.15;;
64252;SDS011;50592;52.958;-7.470;2023-01-24T04:09:03;2.88;;;2.20;;
64252;SDS011;50592;52.958;-7.470;2023-01-24T04:11:30;3.72;;;2.17;;
64252;SDS011;50592;52.958;-7.470;2023-01-24T04:14:16;3.38;;;1.90;;
64252;SDS011;50592;52.958;-7.470;2023-01-24T04:16:57;4.72;;;2.00;;
64252;SDS011;50592;52.958;-7.470;2023-01-24T04:19:33;5.88;;;2.15;;
64252;SDS011;50592;52.958;-7.470;2023-01-24T04:22:00;4.30;;;2.22;;
64252;SDS011;50592;52.958;-7.470;2023-01-24T04:24:28;3.50;;;2.10;;
64252;SDS011;50592;52.958;-7.470;2023-01-24T04:26:58;5.38;;;2.05;;
64252;SDS011;50592;52.958;-7.470;2023-01-24T04:29:31;2.58;;;2.08;;
64252;SDS011;50592;52.958;-7.470;2023-01-24T04:32:05;2.03;;;1.83;;
64252;SDS011;50592;52.958;-7.470;2023-01-24T04:34:51;4.00;;;1.80;;
64252;SDS011;50592;52.958;-7.470;2023-01-24T04:37:34;3.08;;;1.90;;
64252;SDS011;50592;52.958;-7.470;2023-01-24T04:40:01;1.90;;;1.75;;
64252;SDS011;50592;52.958;-7.470;2023-01-24T04:42:32;3.08;;;2.20;;
64252;SDS011;50592;52.958;-7.470;2023-01-24T04:45:00;3.70;;;1.83;;
64252;SDS011;50592;52.958;-7.470;2023-01-24T04:47:30;4.63;;;2.25;;
64252;SDS011;50592;52.958;-7.470;2023-01-24T04:50:00;1.95;;;1.50;;
64252;SDS011;50592;52.958;-7.470;2023-01-24T04:52:30;2.25;;;1.48;;
64252;SDS011;50592;52.958;-7.470;2023-01-24T04:55:05;2.13;;;1.85;;
64252;SDS011;50592;52.958;-7.470;2023-01-24T04:57:36;3.00;;;1.35;;
64252;SDS011;50592;52.958;-7.470;2023-01-24T05:00:06;2.28;;;1.80;;
64252;SDS011;50592;52.958;-7.470;2023-01-24T05:02:37;2.30;;;1.67;;
64252;SDS011;50592;52.958;-7.470;2023-01-24T05:05:05;3.90;;;1.80;;
64252;SDS011;50592;52.958;-7.470;2023-01-24T05:07:37;3.17;;;2.92;;
64252;SDS011;50592;52.958;-7.470;2023-01-24T05:10:09;2.78;;;2.10;;
64252;SDS011;50592;52.958;-7.470;2023-01-24T05:12:39;7.82;;;2.40;;
64252;SDS011;50592;52.958;-7.470;2023-01-24T05:15:15;3.70;;;2.22;;
64252;SDS011;50592;52.958;-7.470;2023-01-24T05:17:45;3.10;;;2.00;;
64252;SDS011;50592;52.958;-7.470;2023-01-24T05:20:17;2.30;;;1.80;;
64252;SDS011;50592;52.958;-7.470;2023-01-24T05:22:45;3.08;;;1.80;;
64252;SDS011;50592;52.958;-7.470;2023-01-24T05:25:14;2.22;;;1.52;;
64252;SDS011;50592;52.958;-7.470;2023-01-24T05:27:44;3.85;;;1.80;;
64252;SDS011;50592;52.958;-7.470;2023-01-24T05:30:13;3.75;;;1.70;;
64252;SDS011;50592;52.958;-7.470;2023-01-24T05:32:42;3.10;;;1.50;;
64252;SDS011;50592;52.958;-7.470;2023-01-24T05:35:10;2.38;;;1.63;;
64252;SDS011;50592;52.958;-7.470;2023-01-24T05:37:37;2.03;;;1.73;;
64252;SDS011;50592;52.958;-7.470;2023-01-24T05:40:08;2.08;;;1.50;;
64252;SDS011;50592;52.958;-7.470;2023-01-24T05:42:37;1.50;;;1.40;;
64252;SDS011;50592;52.958;-7.470;2023-01-24T05:45:08;2.22;;;1.60;;
64252;SDS011;50592;52.958;-7.470;2023-01-24T05:47:39;3.85;;;1.42;;
64252;SDS011;50592;52.958;-7.470;2023-01-24T05:50:12;2.38;;;1.80;;
64252;SDS011;50592;52.958;-7.470;2023-01-24T05:52:40;3.08;;;1.50;;
64252;SDS011;50592;52.958;-7.470;2023-01-24T05:55:10;2.10;;;1.50;;
64252;SDS011;50592;52.958;-7.470;2023-01-24T05:57:46;2.42;;;1.77;;
64252;SDS011;50592;52.958;-7.470;2023-01-24T06:00:13;1.67;;;1.58;;
64252;SDS011;50592;52.958;-7.470;2023-01-24T06:02:44;2.53;;;1.88;;
64252;SDS011;50592;52.958;-7.470;2023-01-24T06:05:12;1.98;;;1.50;;
64252;SDS011;50592;52.958;-7.470;2023-01-24T06:07:41;3.92;;;1.80;;
64252;SDS011;50592;52.958;-7.470;2023-01-24T06:10:09;3.03;;;1.70;;
64252;SDS011;50592;52.958;-7.470;2023-01-24T06:12:47;2.33;;;1.98;;
64252;SDS011;50592;52.958;-7.470;2023-01-24T06:15:17;7.15;;;1.80;;
64252;SDS011;50592;52.958;-7.470;2023-01-24T06:17:47;3.45;;;2.55;;
64252;SDS011;50592;52.958;-7.470;2023-01-24T06:20:17;4.53;;;2.40;;
64252;SDS011;50592;52.958;-7.470;2023-01-24T06:22:51;6.07;;;3.28;;
64252;SDS011;50592;52.958;-7.470;2023-01-24T06:25:24;5.63;;;2.20;;
64252;SDS011;50592;52.958;-7.470;2023-01-24T06:27:54;35.50;;;13.18;;
64252;SDS011;50592;52.958;-7.470;2023-01-24T06:30:25;54.63;;;20.38;;
64252;SDS011;50592;52.958;-7.470;2023-01-24T06:36:14;16.07;;;3.73;;
64252;SDS011;50592;52.958;-7.470;2023-01-24T06:38:40;27.45;;;3.60;;
64252;SDS011;50592;52.958;-7.470;2023-01-24T06:41:16;15.07;;;2.30;;
64252;SDS011;50592;52.958;-7.470;2023-01-24T06:43:44;24.10;;;2.70;;
64252;SDS011;50592;52.958;-7.470;2023-01-24T06:46:13;6.72;;;2.13;;
64252;SDS011;50592;52.958;-7.470;2023-01-24T06:48:43;16.48;;;2.65;;
64252;SDS011;50592;52.958;-7.470;2023-01-24T06:51:14;8.70;;;2.38;;
64252;SDS011;50592;52.958;-7.470;2023-01-24T06:53:44;3.75;;;3.08;;
64252;SDS011;50592;52.958;-7.470;2023-01-24T06:56:10;15.57;;;2.80;;
64252;SDS011;50592;52.958;-7.470;2023-01-24T06:58:39;47.05;;;3.50;;
64252;SDS011;50592;52.958;-7.470;2023-01-24T07:01:06;26.15;;;2.53;;
64252;SDS011;50592;52.958;-7.470;2023-01-24T07:03:35;51.45;;;3.90;;
64252;SDS011;50592;52.958;-7.470;2023-01-24T07:06:02;20.90;;;2.15;;
64252;SDS011;50592;52.958;-7.470;2023-01-24T07:08:31;11.57;;;3.50;;
64252;SDS011;50592;52.958;-7.470;2023-01-24T07:10:58;15.65;;;2.35;;
64252;SDS011;50592;52.958;-7.470;2023-01-24T07:13:28;9.10;;;2.40;;
64252;SDS011;50592;52.958;-7.470;2023-01-24T07:16:01;47.00;;;3.75;;
64252;SDS011;50592;52.958;-7.470;2023-01-24T07:18:31;38.38;;;3.28;;
64252;SDS011;50592;52.958;-7.470;2023-01-24T07:20:58;27.58;;;3.70;;
64252;SDS011;50592;52.958;-7.470;2023-01-24T07:23:28;65.75;;;13.70;;
64252;SDS011;50592;52.958;-7.470;2023-01-24T07:26:01;48.22;;;14.52;;
64252;SDS011;50592;52.958;-7.470;2023-01-24T07:28:29;31.92;;;5.78;;
64252;SDS011;50592;52.958;-7.470;2023-01-24T07:30:58;41.05;;;4.10;;
64252;SDS011;50592;52.958;-7.470;2023-01-24T07:33:25;29.27;;;4.80;;
64252;SDS011;50592;52.958;-7.470;2023-01-24T07:35:55;44.80;;;4.97;;
64252;SDS011;50592;52.958;-7.470;2023-01-24T07:38:25;41.58;;;3.45;;
64252;SDS011;50592;52.958;-7.470;2023-01-24T07:40:52;74.90;;;3.22;;
64252;SDS011;50592;52.958;-7.470;2023-01-24T07:43:22;79.88;;;3.50;;
64252;SDS011;50592;52.958;-7.470;2023-01-24T07:45:48;38.92;;;2.65;;
64252;SDS011;50592;52.958;-7.470;2023-01-24T07:48:18;50.78;;;3.00;;
64252;SDS011;50592;52.958;-7.470;2023-01-24T07:50:45;29.23;;;2.42;;
64252;SDS011;50592;52.958;-7.470;2023-01-24T07:53:15;137.20;;;5.00;;
64252;SDS011;50592;52.958;-7.470;2023-01-24T07:55:41;44.03;;;3.65;;
64252;SDS011;50592;52.958;-7.470;2023-01-24T07:58:11;127.55;;;4.65;;
64252;SDS011;50592;52.958;-7.470;2023-01-24T08:00:38;27.10;;;2.67;;
64252;SDS011;50592;52.958;-7.470;2023-01-24T08:03:08;50.30;;;3.33;;
64252;SDS011;50592;52.958;-7.470;2023-01-24T08:05:36;9.82;;;2.33;;
64252;SDS011;50592;52.958;-7.470;2023-01-24T08:08:06;4.70;;;2.58;;
64252;SDS011;50592;52.958;-7.470;2023-01-24T08:10:33;2.72;;;2.45;;
64252;SDS011;50592;52.958;-7.470;2023-01-24T08:13:02;4.07;;;2.28;;
64252;SDS011;50592;52.958;-7.470;2023-01-24T08:15:29;3.08;;;2.50;;
64252;SDS011;50592;52.958;-7.470;2023-01-24T08:17:57;2.47;;;2.10;;
64252;SDS011;50592;52.958;-7.470;2023-01-24T08:20:27;3.47;;;2.45;;
64252;SDS011;50592;52.958;-7.470;2023-01-24T08:22:57;3.35;;;2.28;;
64252;SDS011;50592;52.958;-7.470;2023-01-24T08:25:27;2.22;;;2.00;;
64252;SDS011;50592;52.958;-7.470;2023-01-24T08:27:56;8.63;;;2.30;;
64252;SDS011;50592;52.958;-7.470;2023-01-24T08:30:22;7.30;;;2.45;;
64252;SDS011;50592;52.958;-7.470;2023-01-24T08:32:47;3.25;;;2.60;;
64252;SDS011;50592;52.958;-7.470;2023-01-24T08:35:13;5.78;;;2.42;;
64252;SDS011;50592;52.958;-7.470;2023-01-24T08:37:43;11.43;;;2.95;;
64252;SDS011;50592;52.958;-7.470;2023-01-24T08:40:09;15.55;;;3.55;;
64252;SDS011;50592;52.958;-7.470;2023-01-24T08:42:35;18.67;;;3.38;;
64252;SDS011;50592;52.958;-7.470;2023-01-24T08:45:01;12.32;;;3.03;;
64252;SDS011;50592;52.958;-7.470;2023-01-24T08:47:27;19.23;;;3.92;;
64252;SDS011;50592;52.958;-7.470;2023-01-24T08:49:53;15.85;;;2.97;;
64252;SDS011;50592;52.958;-7.470;2023-01-24T08:52:18;18.98;;;3.80;;
64252;SDS011;50592;52.958;-7.470;2023-01-24T08:54:44;8.70;;;2.92;;
64252;SDS011;50592;52.958;-7.470;2023-01-24T08:57:10;30.00;;;3.60;;
64252;SDS011;50592;52.958;-7.470;2023-01-24T08:59:35;14.25;;;3.20;;
64252;SDS011;50592;52.958;-7.470;2023-01-24T09:02:01;35.65;;;3.92;;
64252;SDS011;50592;52.958;-7.470;2023-01-24T09:04:27;13.10;;;4.22;;
64252;SDS011;50592;52.958;-7.470;2023-01-24T09:06:53;11.32;;;4.72;;
64252;SDS011;50592;52.958;-7.470;2023-01-24T09:09:19;6.75;;;4.03;;
64252;SDS011;50592;52.958;-7.470;2023-01-24T09:11:45;9.15;;;4.03;;
64252;SDS011;50592;52.958;-7.470;2023-01-24T09:14:11;5.43;;;3.45;;
64252;SDS011;50592;52.958;-7.470;2023-01-24T09:16:36;8.50;;;3.50;;
64252;SDS011;50592;52.958;-7.470;2023-01-24T09:19:02;5.13;;;3.92;;
64252;SDS011;50592;52.958;-7.470;2023-01-24T09:21:28;4.63;;;3.55;;
64252;SDS011;50592;52.958;-7.470;2023-01-24T09:23:54;4.18;;;3.42;;
64252;SDS011;50592;52.958;-7.470;2023-01-24T09:26:20;4.72;;;3.60;;
64252;SDS011;50592;52.958;-7.470;2023-01-24T09:28:47;3.85;;;3.33;;
64252;SDS011;50592;52.958;-7.470;2023-01-24T09:31:12;3.10;;;2.80;;
64252;SDS011;50592;52.958;-7.470;2023-01-24T09:33:38;5.78;;;3.45;;
64252;SDS011;50592;52.958;-7.470;2023-01-24T09:36:05;4.93;;;3.25;;
64252;SDS011;50592;52.958;-7.470;2023-01-24T09:38:32;3.28;;;2.97;;
64252;SDS011;50592;52.958;-7.470;2023-01-24T09:41:24;4.40;;;3.25;;
64252;SDS011;50592;52.958;-7.470;2023-01-24T09:44:03;3.58;;;3.25;;
64252;SDS011;50592;52.958;-7.470;2023-01-24T09:46:43;3.08;;;2.65;;
64252;SDS011;50592;52.958;-7.470;2023-01-24T09:51:52;5.50;;;2.42;;
64252;SDS011;50592;52.958;-7.470;2023-01-24T10:00:30;4.07;;;2.83;;
64252;SDS011;50592;52.958;-7.470;2023-01-24T10:02:59;3.10;;;2.80;;
64252;SDS011;50592;52.958;-7.470;2023-01-24T10:05:37;3.35;;;2.90;;
64252;SDS011;50592;52.958;-7.470;2023-01-24T10:08:15;4.60;;;2.35;;
64252;SDS011;50592;52.958;-7.470;2023-01-24T10:16:28;4.72;;;3.10;;
64252;SDS011;50592;52.958;-7.470;2023-01-24T10:24:31;6.70;;;3.85;;
64252;SDS011;50592;52.958;-7.470;2023-01-24T10:27:00;18.65;;;4.13;;
64252;SDS011;50592;52.958;-7.470;2023-01-24T10:29:33;15.05;;;3.53;;
64252;SDS011;50592;52.958;-7.470;2023-01-24T10:32:04;7.75;;;3.60;;
64252;SDS011;50592;52.958;-7.470;2023-01-24T10:35:20;5.90;;;3.53;;
64252;SDS011;50592;52.958;-7.470;2023-01-24T10:37:42;6.13;;;3.90;;
64252;SDS011;50592;52.958;-7.470;2023-01-24T10:40:11;11.02;;;4.30;;
64252;SDS011;50592;52.958;-7.470;2023-01-24T10:42:38;27.58;;;5.28;;
64252;SDS011;50592;52.958;-7.470;2023-01-24T10:45:18;13.82;;;5.43;;
64252;SDS011;50592;52.958;-7.470;2023-01-24T10:50:22;25.50;;;5.85;;
64252;SDS011;50592;52.958;-7.470;2023-01-24T10:52:49;35.47;;;6.85;;
64252;SDS011;50592;52.958;-7.470;2023-01-24T10:55:22;19.02;;;7.13;;
64252;SDS011;50592;52.958;-7.470;2023-01-24T10:57:55;32.13;;;11.00;;
64252;SDS011;50592;52.958;-7.470;2023-01-24T11:02:54;32.35;;;10.55;;
64252;SDS011;50592;52.958;-7.470;2023-01-24T11:05:22;33.25;;;8.73;;
64252;SDS011;50592;52.958;-7.470;2023-01-24T11:07:53;18.05;;;7.05;;
64252;SDS011;50592;52.958;-7.470;2023-01-24T11:12:58;45.30;;;6.28;;
64252;SDS011;50592;52.958;-7.470;2023-01-24T11:15:30;19.90;;;6.20;;
64252;SDS011;50592;52.958;-7.470;2023-01-24T11:18:10;13.30;;;4.45;;
64252;SDS011;50592;52.958;-7.470;2023-01-24T11:20:38;17.73;;;3.97;;
64252;SDS011;50592;52.958;-7.470;2023-01-24T11:23:18;22.63;;;4.57;;
64252;SDS011;50592;52.958;-7.470;2023-01-24T11:25:50;10.10;;;4.30;;
64252;SDS011;50592;52.958;-7.470;2023-01-24T11:28:24;8.10;;;3.97;;
64252;SDS011;50592;52.958;-7.470;2023-01-24T11:30:54;4.55;;;3.40;;
64252;SDS011;50592;52.958;-7.470;2023-01-24T11:39:02;5.05;;;3.65;;
64252;SDS011;50592;52.958;-7.470;2023-01-24T11:41:57;3.95;;;3.40;;
64252;SDS011;50592;52.958;-7.470;2023-01-24T11:47:36;3.95;;;3.55;;
64252;SDS011;50592;52.958;-7.470;2023-01-24T11:55:29;3.97;;;3.17;;
64252;SDS011;50592;52.958;-7.470;2023-01-24T12:11:17;10.00;;;7.72;;
64252;SDS011;50592;52.958;-7.470;2023-01-24T12:14:09;9.55;;;6.75;;
64252;SDS011;50592;52.958;-7.470;2023-01-24T12:17:22;8.02;;;5.70;;
64252;SDS011;50592;52.958;-7.470;2023-01-24T12:23:18;6.13;;;3.92;;
64252;SDS011;50592;52.958;-7.470;2023-01-24T12:25:46;4.80;;;4.03;;
64252;SDS011;50592;52.958;-7.470;2023-01-24T12:28:23;4.05;;;3.38;;
64252;SDS011;50592;52.958;-7.470;2023-01-24T12:30:56;17.92;;;15.32;;
64252;SDS011;50592;52.958;-7.470;2023-01-24T12:36:13;16.95;;;14.43;;
64252;SDS011;50592;52.958;-7.470;2023-01-24T12:38:49;5.32;;;4.43;;
64252;SDS011;50592;52.958;-7.470;2023-01-24T12:41:38;11.43;;;9.38;;
64252;SDS011;50592;52.958;-7.470;2023-01-24T12:47:11;4.20;;;3.63;;
64252;SDS011;50592;52.958;-7.470;2023-01-24T12:50:07;8.38;;;5.07;;
64252;SDS011;50592;52.958;-7.470;2023-01-24T12:55:16;5.57;;;4.97;;
64252;SDS011;50592;52.958;-7.470;2023-01-24T12:58:03;3.95;;;3.55;;
64252;SDS011;50592;52.958;-7.470;2023-01-24T13:00:46;3.50;;;2.30;;
64252;SDS011;50592;52.958;-7.470;2023-01-24T13:11:17;4.30;;;2.30;;
64252;SDS011;50592;52.958;-7.470;2023-01-24T13:28:53;4.60;;;2.33;;
64252;SDS011;50592;52.958;-7.470;2023-01-24T13:33:49;5.00;;;1.80;;
64252;SDS011;50592;52.958;-7.470;2023-01-24T13:36:22;2.28;;;1.58;;
64252;SDS011;50592;52.958;-7.470;2023-01-24T13:38:55;3.35;;;2.10;;
64252;SDS011;50592;52.958;-7.470;2023-01-24T13:46:47;6.78;;;1.70;;
64252;SDS011;50592;52.958;-7.470;2023-01-24T13:49:18;4.22;;;1.40;;
64252;SDS011;50592;52.958;-7.470;2023-01-24T13:51:53;3.90;;;1.58;;
64252;SDS011;50592;52.958;-7.470;2023-01-24T13:54:41;2.90;;;1.60;;
64252;SDS011;50592;52.958;-7.470;2023-01-24T14:05:38;8.45;;;3.30;;
64252;SDS011;50592;52.958;-7.470;2023-01-24T14:21:30;4.85;;;2.70;;
64252;SDS011;50592;52.958;-7.470;2023-01-24T14:26:52;5.85;;;3.15;;
64252;SDS011;50592;52.958;-7.470;2023-01-24T14:29:21;6.00;;;3.38;;
64252;SDS011;50592;52.958;-7.470;2023-01-24T14:31:53;6.53;;;4.07;;
64252;SDS011;50592;52.958;-7.470;2023-01-24T14:34:24;6.13;;;2.80;;
64252;SDS011;50592;52.958;-7.470;2023-01-24T14:37:02;8.18;;;7.03;;
64252;SDS011;50592;52.958;-7.470;2023-01-24T14:39:32;6.95;;;2.95;;
64252;SDS011;50592;52.958;-7.470;2023-01-24T14:42:02;4.93;;;2.50;;
64252;SDS011;50592;52.958;-7.470;2023-01-24T14:44:33;8.60;;;5.13;;
64252;SDS011;50592;52.958;-7.470;2023-01-24T14:47:16;9.48;;;5.57;;
64252;SDS011;50592;52.958;-7.470;2023-01-24T14:49:46;6.45;;;3.55;;
64252;SDS011;50592;52.958;-7.470;2023-01-24T14:54:47;5.95;;;3.50;;
64252;SDS011;50592;52.958;-7.470;2023-01-24T14:57:19;6.47;;;3.53;;
64252;SDS011;50592;52.958;-7.470;2023-01-24T14:59:58;6.10;;;4.53;;
64252;SDS011;50592;52.958;-7.470;2023-01-24T15:02:37;4.82;;;4.35;;
64252;SDS011;50592;52.958;-7.470;2023-01-24T15:07:56;3.42;;;1.30;;
64252;SDS011;50592;52.958;-7.470;2023-01-24T15:10:31;3.38;;;1.27;;
64252;SDS011;50592;52.958;-7.470;2023-01-24T15:13:01;3.25;;;1.17;;
64252;SDS011;50592;52.958;-7.470;2023-01-24T15:15:29;4.55;;;2.00;;
64252;SDS011;50592;52.958;-7.470;2023-01-24T15:18:05;3.25;;;2.28;;
64252;SDS011;50592;52.958;-7.470;2023-01-24T15:20:50;5.30;;;1.73;;
64252;SDS011;50592;52.958;-7.470;2023-01-24T15:23:19;3.30;;;1.90;;
64252;SDS011;50592;52.958;-7.470;2023-01-24T15:25:48;3.53;;;2.10;;
64252;SDS011;50592;52.958;-7.470;2023-01-24T15:28:22;2.83;;;1.70;;
64252;SDS011;50592;52.958;-7.470;2023-01-24T15:30:59;4.88;;;1.75;;
64252;SDS011;50592;52.958;-7.470;2023-01-24T15:33:40;6.53;;;2.47;;
64252;SDS011;50592;52.958;-7.470;2023-01-24T15:39:10;4.10;;;1.33;;
64252;SDS011;50592;52.958;-7.470;2023-01-24T15:41:39;4.78;;;1.90;;
64252;SDS011;50592;52.958;-7.470;2023-01-24T15:44:23;4.03;;;1.75;;
64252;SDS011;50592;52.958;-7.470;2023-01-24T15:46:52;6.95;;;1.92;;
64252;SDS011;50592;52.958;-7.470;2023-01-24T15:49:57;6.38;;;3.00;;
64252;SDS011;50592;52.958;-7.470;2023-01-24T15:52:24;7.85;;;3.05;;
64252;SDS011;50592;52.958;-7.470;2023-01-24T15:54:54;7.63;;;1.95;;
64252;SDS011;50592;52.958;-7.470;2023-01-24T15:57:32;3.40;;;1.83;;
64252;SDS011;50592;52.958;-7.470;2023-01-24T16:00:02;3.50;;;1.55;;
64252;SDS011;50592;52.958;-7.470;2023-01-24T16:05:13;2.30;;;1.33;;
64252;SDS011;50592;52.958;-7.470;2023-01-24T16:07:43;6.15;;;1.52;;
64252;SDS011;50592;52.958;-7.470;2023-01-24T16:10:12;2.47;;;2.03;;
64252;SDS011;50592;52.958;-7.470;2023-01-24T16:12:39;9.57;;;1.92;;
64252;SDS011;50592;52.958;-7.470;2023-01-24T16:15:05;4.10;;;2.53;;
64252;SDS011;50592;52.958;-7.470;2023-01-24T16:17:31;6.40;;;2.20;;
64252;SDS011;50592;52.958;-7.470;2023-01-24T16:19:57;5.22;;;3.30;;
64252;SDS011;50592;52.958;-7.470;2023-01-24T16:22:22;7.18;;;3.13;;
64252;SDS011;50592;52.958;-7.470;2023-01-24T16:24:48;5.03;;;2.80;;
64252;SDS011;50592;52.958;-7.470;2023-01-24T16:27:15;4.50;;;2.45;;
64252;SDS011;50592;52.958;-7.470;2023-01-24T16:29:41;6.45;;;2.50;;
64252;SDS011;50592;52.958;-7.470;2023-01-24T16:32:18;11.30;;;7.82;;
64252;SDS011;50592;52.958;-7.470;2023-01-24T16:34:45;10.70;;;6.13;;
64252;SDS011;50592;52.958;-7.470;2023-01-24T16:37:11;3.92;;;2.08;;
64252;SDS011;50592;52.958;-7.470;2023-01-24T16:39:37;3.25;;;1.95;;
64252;SDS011;50592;52.958;-7.470;2023-01-24T16:42:07;3.17;;;1.80;;
64252;SDS011;50592;52.958;-7.470;2023-01-24T16:44:39;8.05;;;1.70;;
64252;SDS011;50592;52.958;-7.470;2023-01-24T16:47:04;3.15;;;1.58;;
64252;SDS011;50592;52.958;-7.470;2023-01-24T16:49:33;7.13;;;5.25;;
64252;SDS011;50592;52.958;-7.470;2023-01-24T16:51:59;3.30;;;2.38;;
64252;SDS011;50592;52.958;-7.470;2023-01-24T16:54:26;2.08;;;1.50;;
64252;SDS011;50592;52.958;-7.470;2023-01-24T16:56:52;5.80;;;1.80;;
64252;SDS011;50592;52.958;-7.470;2023-01-24T16:59:17;2.22;;;1.17;;
64252;SDS011;50592;52.958;-7.470;2023-01-24T17:01:43;2.72;;;1.40;;
64252;SDS011;50592;52.958;-7.470;2023-01-24T17:04:09;4.05;;;1.63;;
64252;SDS011;50592;52.958;-7.470;2023-01-24T17:06:35;3.95;;;1.40;;
64252;SDS011;50592;52.958;-7.470;2023-01-24T17:09:04;3.10;;;1.83;;
64252;SDS011;50592;52.958;-7.470;2023-01-24T17:11:30;3.90;;;1.55;;
64252;SDS011;50592;52.958;-7.470;2023-01-24T17:13:57;5.53;;;2.40;;
64252;SDS011;50592;52.958;-7.470;2023-01-24T17:16:23;4.88;;;1.95;;
64252;SDS011;50592;52.958;-7.470;2023-01-24T17:18:50;4.93;;;2.47;;